Time;durP1;ratioP1;P1;durP2;ratioP2;P2;SDS_P1;SDS_P2;PMS_P1;PMS_P2;Temp;Humidity;BMP_temperature;BMP_pressure;BME280_temperature;BME280_humidity;BME280_pressure;Samples;Min_cycle;Max_cycle;Signal;HPM_P1;HPM_P2
2022/04/13 19:19:58;;;;;;;2.67;2.15;;;;;;;21.38;34.23;101549.97;5045244;28;20774;-89
2022/04/13 19:22:24;;;;;;;4.75;2.47;;;;;;;21.77;33.60;101555.34;5039117;28;20045;-87
2022/04/13 19:24:50;;;;;;;4.97;2.88;;;;;;;22.05;33.23;101553.59;5041794;28;20515;-84
2022/04/13 19:27:15;;;;;;;5.50;2.80;;;;;;;22.24;32.93;101549.16;5041289;28;20037;-78
2022/04/13 19:29:41;;;;;;;2.90;2.33;;;;;;;22.37;32.72;101552.38;5037931;28;22274;-81
2022/04/13 19:32:06;;;;;;;4.35;2.70;;;;;;;22.48;32.20;101547.84;5036550;28;20033;-77
2022/04/13 19:34:32;;;;;;;3.00;2.42;;;;;;;22.55;31.99;101556.16;5038273;28;20030;-81
2022/04/13 19:37:00;;;;;;;4.22;2.50;;;;;;;22.69;32.01;101555.66;5041192;28;20132;-83
2022/04/13 19:41:56;;;;;;;;;;;;;;;22.35;31.19;101566.91;5078746;27;19975;-60
2022/04/13 19:44:21;;;;;;;;;;;;;;;21.36;32.03;101565.31;5074788;28;19924;-59
2022/04/13 19:46:47;;;;;;;;;;;;;;;20.42;33.08;101559.22;5073391;28;19924;-59
2022/04/13 19:49:12;;;;;;;;;;;;;;;19.67;33.74;101558.44;5072314;28;19968;-59
2022/04/13 19:51:37;;;;;;;;;;;;;;;19.08;34.33;101553.44;5076363;28;20477;-58
2022/04/13 19:54:03;;;;;;;;;;;;;;;18.61;34.59;101552.75;5077213;28;19920;-58
2022/04/13 19:56:28;;;;;;;;;;;;;;;18.22;34.75;101553.94;5076739;28;19916;-58
2022/04/13 19:58:53;;;;;;;;;;;;;;;17.94;34.89;101557.84;5070175;28;19970;-60
2022/04/13 20:01:19;;;;;;;;;;;;;;;17.68;35.03;101558.84;5070925;28;19931;-58
2022/04/13 20:03:45;;;;;;;;;;;;;;;17.46;35.13;101569.41;5074732;28;19920;-59
2022/04/13 20:06:11;;;;;;;;;;;;;;;17.26;35.27;101563.72;5069978;28;19924;-59
2022/04/13 20:08:36;;;;;;;;;;;;;;;17.09;35.43;101559.66;5072303;28;20372;-59
2022/04/13 20:11:05;;;;;;;;;;;;;;;16.96;35.39;101561.47;5064311;28;19974;-59
2022/04/13 20:13:30;;;;;;;;;;;;;;;16.81;35.67;101564.25;5055883;28;19924;-59
2022/04/13 20:15:56;;;;;;;;;;;;;;;16.70;35.78;101562.38;5068055;28;19924;-59
2022/04/13 20:18:22;;;;;;;;;;;;;;;16.57;35.78;101562.38;5068029;28;20338;-58
2022/04/13 20:20:47;;;;;;;;;;;;;;;16.47;35.93;101561.31;5070670;28;19935;-58
2022/04/13 20:23:12;;;;;;;;;;;;;;;16.39;35.96;101561.84;5059257;28;19974;-60
2022/04/13 20:25:38;;;;;;;;;;;;;;;16.32;36.09;101565.88;5074882;28;19916;-60
2022/04/13 20:28:04;;;;;;;;;;;;;;;16.27;36.02;101573.31;5065541;28;19936;-60
2022/04/13 20:30:30;;;;;;;;;;;;;;;16.23;35.96;101569.19;5064490;28;19925;-60
2022/04/13 20:32:56;;;;;;;;;;;;;;;16.19;36.05;101571.19;5069293;28;20276;-59
2022/04/13 20:35:21;;;;;;;;;;;;;;;16.17;36.00;101580.22;5067882;28;19928;-60
2022/04/13 20:37:57;;;;;;;;;;;;;;;16.11;36.16;101571.69;5066066;28;20003;-60
2022/04/13 20:40:23;;;;;;;;;;;;;;;16.07;36.13;101564.91;5073861;28;19921;-60
2022/04/13 20:42:48;;;;;;;;;;;;;;;16.03;36.13;101570.56;5071478;28;19935;-59
2022/04/13 20:45:13;;;;;;;;;;;;;;;15.98;36.37;101568.19;5068980;28;20424;-59
2022/04/13 20:47:39;;;;;;;;;;;;;;;15.94;36.29;101564.06;5062524;28;20270;-59
2022/04/13 20:50:05;;;;;;;;;;;;;;;15.92;36.30;101565.97;5067982;28;20377;-59
2022/04/13 20:52:30;;;;;;;;;;;;;;;15.89;36.37;101567.00;5063478;28;20287;-59
2022/04/13 20:54:56;;;;;;;;;;;;;;;15.87;36.58;101562.75;5057540;28;19936;-59
2022/04/13 20:57:21;;;;;;;;;;;;;;;15.87;36.55;101565.41;5061501;28;20138;-59
2022/04/13 20:59:46;;;;;;;;;;;;;;;15.87;36.35;101562.75;5053932;28;19929;-60
2022/04/13 21:02:11;;;;;;;;;;;;;;;15.85;36.36;101558.41;5058314;28;20331;-60
2022/04/13 21:04:37;;;;;;;;;;;;;;;15.83;36.49;101557.63;5055703;28;19921;-59
2022/04/13 21:07:02;;;;;;;;;;;;;;;15.82;36.49;101550.59;5040129;28;19975;-60
2022/04/13 21:09:28;;;;;;;;;;;;;;;15.80;36.43;101563.16;5046100;28;19929;-60
2022/04/13 21:11:53;;;;;;;;;;;;;;;15.79;36.33;101555.28;5046113;28;19924;-60
2022/04/13 21:14:18;;;;;;;;;;;;;;;15.78;36.41;101562.41;5045945;28;19928;-58
2022/04/13 21:16:44;;;;;;;;;;;;;;;15.78;36.30;101553.56;5038342;28;19920;-59
2022/04/13 21:19:09;;;;;;;;;;;;;;;15.77;36.45;101554.53;5059243;28;19924;-60
2022/04/13 21:21:34;;;;;;;;;;;;;;;15.78;36.32;101559.75;5054334;28;20788;-59
2022/04/13 21:24:00;;;;;;;;;;;;;;;15.78;36.14;101554.44;5051808;28;20287;-60
2022/04/13 21:26:25;;;;;;;;;;;;;;;15.79;36.10;101556.13;5055434;28;19920;-60
2022/04/13 21:28:51;;;;;;;;;;;;;;;15.80;36.04;101557.84;5054890;28;19974;-59
2022/04/13 21:31:16;;;;;;;;;;;;;;;15.80;36.11;101562.28;5051445;28;19927;-60
2022/04/13 21:33:41;;;;;;;;;;;;;;;15.81;36.10;101570.13;5050690;28;19966;-60
2022/04/13 21:36:07;;;;;;;;;;;;;;;15.81;35.94;101567.47;5049993;28;19921;-60
2022/04/13 21:38:32;;;;;;;;;;;;;;;15.82;36.11;101561.22;5051622;28;19971;-58
2022/04/13 21:40:58;;;;;;;;;;;;;;;15.83;36.00;101554.13;5050070;28;19940;-60
2022/04/13 21:43:23;;;;;;;;;;;;;;;15.83;35.85;101562.09;5057341;28;20435;-59
2022/04/13 21:45:48;;;;;;;;;;;;;;;15.83;35.94;101562.91;5051087;28;20843;-60
2022/04/13 21:48:14;;;;;;;;;;;;;;;15.84;35.86;101559.31;5050642;28;20281;-60
2022/04/13 21:50:39;;;;;;;;;;;;;;;15.85;35.81;101561.06;5049226;28;19935;-59
2022/04/13 21:53:05;;;;;;;;;;;;;;;15.83;35.82;101554.97;5046891;28;19935;-59
2022/04/13 21:55:30;;;;;;;;;;;;;;;15.84;35.81;101554.00;5053646;28;19935;-59
2022/04/13 21:57:56;;;;;;;;;;;;;;;15.84;35.86;101558.47;5056899;28;20380;-60
2022/04/13 22:00:36;;;;;;;;;;;;;;;15.82;35.86;101555.91;5051697;28;19921;-59
2022/04/13 22:03:03;;;;;;;;;;;;;;;15.82;36.01;101555.91;5047189;28;19925;-59
2022/04/13 22:05:29;;;;;;;;;;;;;;;15.81;35.97;101554.22;5056737;28;20052;-59
2022/04/13 22:07:55;;;;;;;;;;;;;;;15.80;35.91;101549.00;5053512;28;19991;-59
2022/04/13 22:10:21;;;;;;;;;;;;;;;15.79;36.03;101550.84;5058951;28;20065;-60
2022/04/13 22:12:46;;;;;;;;;;;;;;;15.80;35.96;101547.22;5058147;28;20388;-59
2022/04/13 22:15:11;;;;;;;;;;;;;;;15.79;35.91;101555.28;5053378;28;19925;-59
2022/04/13 22:17:37;;;;;;;;;;;;;;;15.79;35.96;101547.31;5054530;28;20300;-59
2022/04/13 22:20:02;;;;;;;;;;;;;;;15.79;36.15;101544.66;5054646;28;19997;-60
2022/04/13 22:22:28;;;;;;;;;;;;;;;15.77;36.11;101546.56;5050566;28;19929;-59
2022/04/13 22:24:53;;;;;;;;;;;;;;;15.76;36.17;101550.16;5053022;28;19936;-60
2022/04/13 22:27:19;;;;;;;;;;;;;;;15.75;36.15;101546.69;5057218;28;19917;-59
2022/04/13 22:29:44;;;;;;;;;;;;;;;15.75;36.28;101549.34;5057935;28;19931;-60
2022/04/13 22:32:12;;;;;;;;;;;;;;;15.74;36.15;101544.97;5060708;28;19924;-59
2022/04/13 22:34:37;;;;;;;;;;;;;;;15.74;36.29;101544.97;5057991;28;19931;-60
2022/04/13 22:37:03;;;;;;;;;;;;;;;15.72;36.29;101535.44;5060966;28;20291;-60
2022/04/13 22:39:28;;;;;;;;;;;;;;;15.71;36.30;101537.22;5054403;28;19920;-59
2022/04/13 22:41:53;;;;;;;;;;;;;;;15.72;36.58;101538.91;5051673;28;20029;-59
2022/04/13 22:44:19;;;;;;;;;;;;;;;15.71;36.50;101534.56;5066292;28;20364;-60
2022/04/13 22:46:44;;;;;;;;;;;;;;;15.70;36.55;101530.22;5054598;28;20340;-59
2022/04/13 22:49:10;;;;;;;;;;;;;;;15.69;36.69;101544.41;5053991;28;19928;-59
2022/04/13 22:51:35;;;;;;;;;;;;;;;15.67;36.56;101535.72;5057521;28;19921;-59
2022/04/13 22:54:00;;;;;;;;;;;;;;;15.67;36.69;101533.91;5057669;28;20438;-58
2022/04/13 22:56:28;;;;;;;;;;;;;;;15.67;36.82;101533.06;5054809;28;19944;-59
2022/04/13 22:58:53;;;;;;;;;;;;;;;15.66;36.71;101534.00;5053098;28;19920;-59
2022/04/13 23:01:19;;;;;;;;;;;;;;;15.65;36.72;101538.47;5052013;28;20405;-60
2022/04/13 23:03:44;;;;;;;;;;;;;;;15.65;36.84;101527.03;5054347;28;20383;-58
2022/04/13 23:06:10;;;;;;;;;;;;;;;15.65;36.71;101527.03;5049536;28;20337;-59
2022/04/13 23:08:35;;;;;;;;;;;;;;;15.65;37.00;101527.03;5056012;28;20234;-60
2022/04/13 23:11:00;;;;;;;;;;;;;;;15.64;36.90;101525.31;5057182;28;20935;-59
2022/04/13 23:13:26;;;;;;;;;;;;;;;15.64;36.92;101527.97;5048736;28;19935;-60
2022/04/13 23:15:51;;;;;;;;;;;;;;;15.62;37.02;101522.75;5052588;28;19920;-59
2022/04/13 23:18:16;;;;;;;;;;;;;;;15.62;36.96;101525.41;5049745;28;19931;-60
2022/04/13 23:20:42;;;;;;;;;;;;;;;15.62;37.04;101517.44;5051160;28;19948;-59
2022/04/13 23:23:07;;;;;;;;;;;;;;;15.60;37.01;101524.66;5049525;28;19920;-59
2022/04/13 23:25:32;;;;;;;;;;;;;;;15.59;37.30;101516.81;5049368;28;19928;-59
2022/04/13 23:28:01;;;;;;;;;;;;;;;15.58;37.17;101517.75;5048658;28;20046;-59
2022/04/13 23:30:27;;;;;;;;;;;;;;;15.54;37.32;101510.00;5050895;28;20019;-58
2022/04/13 23:32:52;;;;;;;;;;;;;;;15.52;37.31;101511.06;5053842;28;19995;-60
2022/04/13 23:35:18;;;;;;;;;;;;;;;15.50;37.41;101512.97;5050600;28;20359;-60
2022/04/13 23:37:43;;;;;;;;;;;;;;;15.48;37.43;101509.56;5050450;28;20390;-60
2022/04/13 23:40:08;;;;;;;;;;;;;;;15.46;37.61;101508.81;5066522;28;20410;-59
2022/04/13 23:42:34;;;;;;;;;;;;;;;15.44;37.66;101508.94;5054878;28;19942;-58
2022/04/13 23:44:59;;;;;;;;;;;;;;;15.43;37.68;101517.84;5051124;28;19924;-60
2022/04/13 23:47:24;;;;;;;;;;;;;;;15.40;37.57;101515.38;5053017;28;20349;-59
2022/04/13 23:49:50;;;;;;;;;;;;;;;15.39;37.74;101516.31;5055773;28;20090;-59
2022/04/13 23:52:15;;;;;;;;;;;;;;;15.36;37.68;101514.75;5050532;28;19921;-59
2022/04/13 23:54:40;;;;;;;;;;;;;;;15.35;37.72;101509.56;5047566;28;19931;-59
2022/04/13 23:57:08;;;;;;;;;;;;;;;15.33;37.88;101511.44;5053079;28;19920;-59
2022/04/13 23:59:33;;;;;;;;;;;;;;;15.30;37.86;101514.28;5052509;28;20296;-60
